sensor_id;sensor_type;location;lat;lon;timestamp;temperature;humidity
61004;DHT22;46889;37.310;13.582;2024-03-02T00:00:38;12.40;99.90
61004;DHT22;46889;37.310;13.582;2024-03-02T00:03:05;12.30;99.90
61004;DHT22;46889;37.310;13.582;2024-03-02T00:05:35;12.30;99.90
61004;DHT22;46889;37.310;13.582;2024-03-02T00:08:01;12.40;99.90
61004;DHT22;46889;37.310;13.582;2024-03-02T00:10:37;12.40;99.90
61004;DHT22;46889;37.310;13.582;2024-03-02T00:13:06;12.40;99.90
61004;DHT22;46889;37.310;13.582;2024-03-02T00:15:39;12.50;99.90
61004;DHT22;46889;37.310;13.582;2024-03-02T00:18:26;12.50;99.90
61004;DHT22;46889;37.310;13.582;2024-03-02T00:21:02;12.60;99.90
61004;DHT22;46889;37.310;13.582;2024-03-02T00:23:34;12.60;99.90
61004;DHT22;46889;37.310;13.582;2024-03-02T00:26:03;12.60;99.90
61004;DHT22;46889;37.310;13.582;2024-03-02T00:28:33;12.60;99.90
61004;DHT22;46889;37.310;13.582;2024-03-02T00:31:01;12.70;99.90
61004;DHT22;46889;37.310;13.582;2024-03-02T00:36:31;12.80;99.90
61004;DHT22;46889;37.310;13.582;2024-03-02T00:39:03;12.80;99.90
61004;DHT22;46889;37.310;13.582;2024-03-02T00:41:29;12.80;99.90
61004;DHT22;46889;37.310;13.582;2024-03-02T00:44:04;12.90;99.90
61004;DHT22;46889;37.310;13.582;2024-03-02T00:46:35;12.80;99.90
61004;DHT22;46889;37.310;13.582;2024-03-02T00:49:05;12.70;99.90
61004;DHT22;46889;37.310;13.582;2024-03-02T00:51:32;12.70;99.90
61004;DHT22;46889;37.310;13.582;2024-03-02T00:53:59;12.70;99.90
61004;DHT22;46889;37.310;13.582;2024-03-02T00:56:25;12.70;99.90
61004;DHT22;46889;37.310;13.582;2024-03-02T00:58:51;12.70;99.90
61004;DHT22;46889;37.310;13.582;2024-03-02T01:01:17;12.70;99.90
61004;DHT22;46889;37.310;13.582;2024-03-02T01:03:45;12.70;99.90
61004;DHT22;46889;37.310;13.582;2024-03-02T01:06:11;12.70;99.90
61004;DHT22;46889;37.310;13.582;2024-03-02T01:08:38;12.60;99.90
61004;DHT22;46889;37.310;13.582;2024-03-02T01:11:04;12.40;99.90
61004;DHT22;46889;37.310;13.582;2024-03-02T01:13:30;12.30;99.90
61004;DHT22;46889;37.310;13.582;2024-03-02T01:15:56;12.30;99.90
61004;DHT22;46889;37.310;13.582;2024-03-02T01:18:22;12.30;99.90
61004;DHT22;46889;37.310;13.582;2024-03-02T01:20:48;12.40;99.90
61004;DHT22;46889;37.310;13.582;2024-03-02T01:23:17;12.30;99.90
61004;DHT22;46889;37.310;13.582;2024-03-02T01:25:45;12.30;99.90
61004;DHT22;46889;37.310;13.582;2024-03-02T01:28:11;12.30;99.90
61004;DHT22;46889;37.310;13.582;2024-03-02T01:30:37;12.30;99.90
61004;DHT22;46889;37.310;13.582;2024-03-02T01:33:03;12.30;99.90
61004;DHT22;46889;37.310;13.582;2024-03-02T01:35:31;12.30;99.90
61004;DHT22;46889;37.310;13.582;2024-03-02T01:37:57;12.30;99.90
61004;DHT22;46889;37.310;13.582;2024-03-02T01:40:23;12.20;99.90
61004;DHT22;46889;37.310;13.582;2024-03-02T01:42:52;12.20;99.90
61004;DHT22;46889;37.310;13.582;2024-03-02T01:45:19;12.30;99.90
61004;DHT22;46889;37.310;13.582;2024-03-02T01:47:46;12.30;99.90
61004;DHT22;46889;37.310;13.582;2024-03-02T01:50:12;12.40;99.90
61004;DHT22;46889;37.310;13.582;2024-03-02T01:52:38;12.50;99.90
61004;DHT22;46889;37.310;13.582;2024-03-02T01:55:04;12.40;99.90
61004;DHT22;46889;37.310;13.582;2024-03-02T01:57:34;12.40;99.90
61004;DHT22;46889;37.310;13.582;2024-03-02T02:00:00;12.40;99.90
61004;DHT22;46889;37.310;13.582;2024-03-02T02:02:26;12.40;99.90
61004;DHT22;46889;37.310;13.582;2024-03-02T02:04:52;12.40;99.90
61004;DHT22;46889;37.310;13.582;2024-03-02T02:07:18;12.50;99.90
61004;DHT22;46889;37.310;13.582;2024-03-02T02:09:44;12.50;99.90
61004;DHT22;46889;37.310;13.582;2024-03-02T02:12:10;12.50;99.90
61004;DHT22;46889;37.310;13.582;2024-03-02T02:14:36;12.50;99.90
61004;DHT22;46889;37.310;13.582;2024-03-02T02:17:02;12.50;99.90
61004;DHT22;46889;37.310;13.582;2024-03-02T02:19:28;12.40;99.90
61004;DHT22;46889;37.310;13.582;2024-03-02T02:21:54;12.40;99.90
61004;DHT22;46889;37.310;13.582;2024-03-02T02:24:20;12.40;99.90
61004;DHT22;46889;37.310;13.582;2024-03-02T02:26:47;12.40;99.90
61004;DHT22;46889;37.310;13.582;2024-03-02T02:29:13;12.40;99.90
61004;DHT22;46889;37.310;13.582;2024-03-02T02:31:41;12.40;99.90
61004;DHT22;46889;37.310;13.582;2024-03-02T02:34:07;12.30;99.90
61004;DHT22;46889;37.310;13.582;2024-03-02T02:36:34;12.30;99.90
61004;DHT22;46889;37.310;13.582;2024-03-02T02:39:03;12.20;99.90
61004;DHT22;46889;37.310;13.582;2024-03-02T02:41:30;12.20;99.90
61004;DHT22;46889;37.310;13.582;2024-03-02T02:43:56;12.30;99.90
61004;DHT22;46889;37.310;13.582;2024-03-02T02:46:22;12.30;99.90
61004;DHT22;46889;37.310;13.582;2024-03-02T02:48:48;12.20;99.90
61004;DHT22;46889;37.310;13.582;2024-03-02T02:51:13;12.20;99.90
61004;DHT22;46889;37.310;13.582;2024-03-02T02:53:39;12.20;99.90
61004;DHT22;46889;37.310;13.582;2024-03-02T02:56:08;12.20;99.90
61004;DHT22;46889;37.310;13.582;2024-03-02T02:58:35;12.20;99.90
61004;DHT22;46889;37.310;13.582;2024-03-02T03:01:01;12.20;99.90
61004;DHT22;46889;37.310;13.582;2024-03-02T03:03:28;12.10;99.90
61004;DHT22;46889;37.310;13.582;2024-03-02T03:05:54;12.20;99.90
61004;DHT22;46889;37.310;13.582;2024-03-02T03:08:21;12.10;99.90
61004;DHT22;46889;37.310;13.582;2024-03-02T03:10:48;12.10;99.90
61004;DHT22;46889;37.310;13.582;2024-03-02T03:13:15;12.10;99.90
61004;DHT22;46889;37.310;13.582;2024-03-02T03:15:41;12.10;99.90
61004;DHT22;46889;37.310;13.582;2024-03-02T03:18:07;12.10;99.90
61004;DHT22;46889;37.310;13.582;2024-03-02T03:20:33;12.20;99.90
61004;DHT22;46889;37.310;13.582;2024-03-02T03:22:59;12.20;99.90
61004;DHT22;46889;37.310;13.582;2024-03-02T03:25:26;12.20;99.90
61004;DHT22;46889;37.310;13.582;2024-03-02T03:27:53;12.30;99.90
61004;DHT22;46889;37.310;13.582;2024-03-02T03:30:23;12.30;99.90
61004;DHT22;46889;37.310;13.582;2024-03-02T03:32:49;12.30;99.90
61004;DHT22;46889;37.310;13.582;2024-03-02T03:35:16;12.30;99.90
61004;DHT22;46889;37.310;13.582;2024-03-02T03:37:44;12.30;99.90
61004;DHT22;46889;37.310;13.582;2024-03-02T03:40:10;12.30;99.90
61004;DHT22;46889;37.310;13.582;2024-03-02T03:42:36;12.30;99.90
61004;DHT22;46889;37.310;13.582;2024-03-02T03:45:02;12.20;99.90
61004;DHT22;46889;37.310;13.582;2024-03-02T03:47:28;12.30;99.90
61004;DHT22;46889;37.310;13.582;2024-03-02T03:49:54;12.30;99.90
61004;DHT22;46889;37.310;13.582;2024-03-02T03:52:19;12.30;99.90
61004;DHT22;46889;37.310;13.582;2024-03-02T03:54:46;12.30;99.90
61004;DHT22;46889;37.310;13.582;2024-03-02T03:57:12;12.40;99.90
61004;DHT22;46889;37.310;13.582;2024-03-02T03:59:39;12.40;99.90
61004;DHT22;46889;37.310;13.582;2024-03-02T04:02:05;12.40;99.90
61004;DHT22;46889;37.310;13.582;2024-03-02T04:04:31;12.40;99.90
61004;DHT22;46889;37.310;13.582;2024-03-02T04:06:57;12.30;99.90
61004;DHT22;46889;37.310;13.582;2024-03-02T04:09:22;12.40;99.90
61004;DHT22;46889;37.310;13.582;2024-03-02T04:11:48;12.20;99.90
61004;DHT22;46889;37.310;13.582;2024-03-02T04:14:14;12.20;99.90
61004;DHT22;46889;37.310;13.582;2024-03-02T04:16:40;12.10;99.90
61004;DHT22;46889;37.310;13.582;2024-03-02T04:19:07;11.90;99.90
61004;DHT22;46889;37.310;13.582;2024-03-02T04:21:32;12.00;99.90
61004;DHT22;46889;37.310;13.582;2024-03-02T04:24:01;12.00;99.90
61004;DHT22;46889;37.310;13.582;2024-03-02T04:26:27;12.00;99.90
61004;DHT22;46889;37.310;13.582;2024-03-02T04:28:53;12.00;99.90
61004;DHT22;46889;37.310;13.582;2024-03-02T04:31:20;12.00;99.90
61004;DHT22;46889;37.310;13.582;2024-03-02T04:33:46;12.00;99.90
61004;DHT22;46889;37.310;13.582;2024-03-02T04:36:12;12.00;99.90
61004;DHT22;46889;37.310;13.582;2024-03-02T04:38:38;12.00;99.90
61004;DHT22;46889;37.310;13.582;2024-03-02T04:41:04;12.00;99.90
61004;DHT22;46889;37.310;13.582;2024-03-02T04:43:31;12.10;99.90
61004;DHT22;46889;37.310;13.582;2024-03-02T04:45:58;12.10;99.90
61004;DHT22;46889;37.310;13.582;2024-03-02T04:48:23;12.10;99.90
61004;DHT22;46889;37.310;13.582;2024-03-02T04:50:49;12.10;99.90
61004;DHT22;46889;37.310;13.582;2024-03-02T04:53:15;12.10;99.90
61004;DHT22;46889;37.310;13.582;2024-03-02T04:55:41;12.20;99.90
61004;DHT22;46889;37.310;13.582;2024-03-02T04:58:07;12.20;99.90
61004;DHT22;46889;37.310;13.582;2024-03-02T05:00:33;12.20;99.90
61004;DHT22;46889;37.310;13.582;2024-03-02T05:02:59;12.10;99.90
61004;DHT22;46889;37.310;13.582;2024-03-02T05:05:24;12.10;99.90
61004;DHT22;46889;37.310;13.582;2024-03-02T05:07:50;12.10;99.90
61004;DHT22;46889;37.310;13.582;2024-03-02T05:10:16;12.00;99.90
61004;DHT22;46889;37.310;13.582;2024-03-02T05:12:42;11.90;99.90
61004;DHT22;46889;37.310;13.582;2024-03-02T05:15:09;11.90;99.90
61004;DHT22;46889;37.310;13.582;2024-03-02T05:17:35;11.90;99.90
61004;DHT22;46889;37.310;13.582;2024-03-02T05:20:02;12.00;99.90
61004;DHT22;46889;37.310;13.582;2024-03-02T05:22:28;12.10;99.90
61004;DHT22;46889;37.310;13.582;2024-03-02T05:24:54;12.20;99.90
61004;DHT22;46889;37.310;13.582;2024-03-02T05:27:20;12.00;99.90
61004;DHT22;46889;37.310;13.582;2024-03-02T05:29:46;12.10;99.90
61004;DHT22;46889;37.310;13.582;2024-03-02T05:32:13;12.20;99.90
61004;DHT22;46889;37.310;13.582;2024-03-02T05:34:39;12.20;99.90
61004;DHT22;46889;37.310;13.582;2024-03-02T05:37:04;12.10;99.90
61004;DHT22;46889;37.310;13.582;2024-03-02T05:39:30;12.30;99.90
61004;DHT22;46889;37.310;13.582;2024-03-02T05:41:56;12.30;99.90
61004;DHT22;46889;37.310;13.582;2024-03-02T05:44:22;12.20;99.90
61004;DHT22;46889;37.310;13.582;2024-03-02T05:46:48;12.20;99.90
61004;DHT22;46889;37.310;13.582;2024-03-02T05:49:13;12.20;99.90
61004;DHT22;46889;37.310;13.582;2024-03-02T05:51:40;12.20;99.90
61004;DHT22;46889;37.310;13.582;2024-03-02T05:54:07;12.10;99.90
61004;DHT22;46889;37.310;13.582;2024-03-02T05:56:32;12.20;99.90
61004;DHT22;46889;37.310;13.582;2024-03-02T05:58:58;12.30;99.90
61004;DHT22;46889;37.310;13.582;2024-03-02T06:01:39;12.20;99.90
61004;DHT22;46889;37.310;13.582;2024-03-02T06:04:06;12.40;99.90
61004;DHT22;46889;37.310;13.582;2024-03-02T06:06:31;12.60;99.90
61004;DHT22;46889;37.310;13.582;2024-03-02T06:09:02;13.00;99.90
61004;DHT22;46889;37.310;13.582;2024-03-02T06:11:35;13.50;99.90
61004;DHT22;46889;37.310;13.582;2024-03-02T06:14:02;14.00;99.90
61004;DHT22;46889;37.310;13.582;2024-03-02T06:16:28;14.40;99.90
61004;DHT22;46889;37.310;13.582;2024-03-02T06:18:53;14.80;99.90
61004;DHT22;46889;37.310;13.582;2024-03-02T06:21:19;15.10;99.90
61004;DHT22;46889;37.310;13.582;2024-03-02T06:23:45;15.80;99.90
61004;DHT22;46889;37.310;13.582;2024-03-02T06:26:11;16.30;99.90
61004;DHT22;46889;37.310;13.582;2024-03-02T06:28:37;16.80;99.90
61004;DHT22;46889;37.310;13.582;2024-03-02T06:31:03;17.40;99.90
61004;DHT22;46889;37.310;13.582;2024-03-02T06:33:30;17.60;99.90
61004;DHT22;46889;37.310;13.582;2024-03-02T06:35:55;18.10;99.90
61004;DHT22;46889;37.310;13.582;2024-03-02T06:38:21;18.50;99.90
61004;DHT22;46889;37.310;13.582;2024-03-02T06:40:47;18.90;99.90
61004;DHT22;46889;37.310;13.582;2024-03-02T06:43:13;19.30;99.90
61004;DHT22;46889;37.310;13.582;2024-03-02T06:45:39;19.60;99.90
61004;DHT22;46889;37.310;13.582;2024-03-02T06:48:04;20.10;99.90
61004;DHT22;46889;37.310;13.582;2024-03-02T06:50:30;20.60;99.90
61004;DHT22;46889;37.310;13.582;2024-03-02T06:52:56;21.40;99.90
61004;DHT22;46889;37.310;13.582;2024-03-02T06:55:22;21.60;99.90
61004;DHT22;46889;37.310;13.582;2024-03-02T06:57:50;21.80;99.90
61004;DHT22;46889;37.310;13.582;2024-03-02T07:00:16;22.30;99.90
61004;DHT22;46889;37.310;13.582;2024-03-02T07:02:46;22.30;99.90
61004;DHT22;46889;37.310;13.582;2024-03-02T07:05:12;22.30;99.90
61004;DHT22;46889;37.310;13.582;2024-03-02T07:07:39;22.60;99.90
61004;DHT22;46889;37.310;13.582;2024-03-02T07:10:05;23.20;99.90
61004;DHT22;46889;37.310;13.582;2024-03-02T07:12:38;23.70;99.90
61004;DHT22;46889;37.310;13.582;2024-03-02T07:15:10;24.40;99.90
61004;DHT22;46889;37.310;13.582;2024-03-02T07:17:55;25.10;99.90
61004;DHT22;46889;37.310;13.582;2024-03-02T07:20:21;25.00;99.90
61004;DHT22;46889;37.310;13.582;2024-03-02T07:22:47;24.60;99.90
61004;DHT22;46889;37.310;13.582;2024-03-02T07:25:13;24.20;99.90
61004;DHT22;46889;37.310;13.582;2024-03-02T07:27:39;24.30;99.90
61004;DHT22;46889;37.310;13.582;2024-03-02T07:30:05;24.20;99.90
61004;DHT22;46889;37.310;13.582;2024-03-02T07:32:31;24.80;99.90
61004;DHT22;46889;37.310;13.582;2024-03-02T07:34:57;25.10;99.90
61004;DHT22;46889;37.310;13.582;2024-03-02T07:37:23;25.40;99.90
61004;DHT22;46889;37.310;13.582;2024-03-02T07:39:49;25.60;99.90
61004;DHT22;46889;37.310;13.582;2024-03-02T07:42:15;25.70;99.90
61004;DHT22;46889;37.310;13.582;2024-03-02T07:44:41;25.70;99.90
61004;DHT22;46889;37.310;13.582;2024-03-02T07:47:07;25.40;99.90
61004;DHT22;46889;37.310;13.582;2024-03-02T07:49:33;25.10;99.90
61004;DHT22;46889;37.310;13.582;2024-03-02T07:52:00;25.00;99.90
61004;DHT22;46889;37.310;13.582;2024-03-02T07:54:25;24.80;99.90
61004;DHT22;46889;37.310;13.582;2024-03-02T07:56:52;24.10;99.90
61004;DHT22;46889;37.310;13.582;2024-03-02T07:59:18;23.90;99.90
61004;DHT22;46889;37.310;13.582;2024-03-02T08:01:44;23.60;99.90
61004;DHT22;46889;37.310;13.582;2024-03-02T08:04:09;23.00;99.90
61004;DHT22;46889;37.310;13.582;2024-03-02T08:06:35;22.20;99.90
61004;DHT22;46889;37.310;13.582;2024-03-02T08:09:01;21.80;99.90
61004;DHT22;46889;37.310;13.582;2024-03-02T08:11:27;21.50;99.90
61004;DHT22;46889;37.310;13.582;2024-03-02T08:13:53;21.00;99.90
61004;DHT22;46889;37.310;13.582;2024-03-02T08:16:20;20.90;99.90
61004;DHT22;46889;37.310;13.582;2024-03-02T08:18:49;20.80;99.90
61004;DHT22;46889;37.310;13.582;2024-03-02T08:21:17;20.80;99.90
61004;DHT22;46889;37.310;13.582;2024-03-02T08:23:43;20.60;99.90
61004;DHT22;46889;37.310;13.582;2024-03-02T08:26:09;20.60;99.90
61004;DHT22;46889;37.310;13.582;2024-03-02T08:28:35;20.60;99.90
61004;DHT22;46889;37.310;13.582;2024-03-02T08:31:06;20.60;99.90
61004;DHT22;46889;37.310;13.582;2024-03-02T08:33:32;20.70;99.90
61004;DHT22;46889;37.310;13.582;2024-03-02T08:35:58;20.70;99.90
61004;DHT22;46889;37.310;13.582;2024-03-02T08:38:24;20.30;99.90
61004;DHT22;46889;37.310;13.582;2024-03-02T08:40:50;20.10;99.90
61004;DHT22;46889;37.310;13.582;2024-03-02T08:43:16;20.00;99.90
61004;DHT22;46889;37.310;13.582;2024-03-02T08:45:42;19.90;99.90
61004;DHT22;46889;37.310;13.582;2024-03-02T08:48:08;19.60;99.90
61004;DHT22;46889;37.310;13.582;2024-03-02T08:50:34;19.30;99.90
61004;DHT22;46889;37.310;13.582;2024-03-02T08:53:02;19.50;99.90
61004;DHT22;46889;37.310;13.582;2024-03-02T08:55:28;19.50;99.90
61004;DHT22;46889;37.310;13.582;2024-03-02T08:57:54;19.30;99.90
61004;DHT22;46889;37.310;13.582;2024-03-02T09:00:20;18.90;99.90
61004;DHT22;46889;37.310;13.582;2024-03-02T09:02:46;18.30;99.90
61004;DHT22;46889;37.310;13.582;2024-03-02T09:05:12;18.00;99.90
61004;DHT22;46889;37.310;13.582;2024-03-02T09:07:38;18.40;99.90
61004;DHT22;46889;37.310;13.582;2024-03-02T09:10:07;18.50;99.90
61004;DHT22;46889;37.310;13.582;2024-03-02T09:12:33;18.50;99.90
61004;DHT22;46889;37.310;13.582;2024-03-02T09:15:02;17.90;99.90
61004;DHT22;46889;37.310;13.582;2024-03-02T09:17:29;17.90;99.90
61004;DHT22;46889;37.310;13.582;2024-03-02T09:19:55;17.90;99.90
61004;DHT22;46889;37.310;13.582;2024-03-02T09:22:21;17.40;99.90
61004;DHT22;46889;37.310;13.582;2024-03-02T09:24:48;17.20;99.90
61004;DHT22;46889;37.310;13.582;2024-03-02T09:27:13;16.80;99.90
61004;DHT22;46889;37.310;13.582;2024-03-02T09:29:39;17.10;99.90
61004;DHT22;46889;37.310;13.582;2024-03-02T09:32:05;17.20;99.90
61004;DHT22;46889;37.310;13.582;2024-03-02T09:34:31;17.30;99.90
61004;DHT22;46889;37.310;13.582;2024-03-02T09:36:57;17.50;99.90
61004;DHT22;46889;37.310;13.582;2024-03-02T09:39:25;17.80;99.90
61004;DHT22;46889;37.310;13.582;2024-03-02T09:41:50;18.00;99.90
61004;DHT22;46889;37.310;13.582;2024-03-02T09:44:16;18.20;99.90
61004;DHT22;46889;37.310;13.582;2024-03-02T09:46:42;18.10;99.90
61004;DHT22;46889;37.310;13.582;2024-03-02T09:49:12;18.20;99.90
61004;DHT22;46889;37.310;13.582;2024-03-02T09:51:38;18.20;99.90
61004;DHT22;46889;37.310;13.582;2024-03-02T09:54:05;18.00;99.90
61004;DHT22;46889;37.310;13.582;2024-03-02T09:56:32;18.00;99.90
61004;DHT22;46889;37.310;13.582;2024-03-02T09:58:59;17.80;99.90
61004;DHT22;46889;37.310;13.582;2024-03-02T10:01:25;17.50;99.90
61004;DHT22;46889;37.310;13.582;2024-03-02T10:03:50;17.10;99.90
61004;DHT22;46889;37.310;13.582;2024-03-02T10:06:20;17.20;99.90
61004;DHT22;46889;37.310;13.582;2024-03-02T10:08:46;17.40;99.90
61004;DHT22;46889;37.310;13.582;2024-03-02T10:11:29;17.60;99.90
61004;DHT22;46889;37.310;13.582;2024-03-02T10:14:06;17.90;99.90
61004;DHT22;46889;37.310;13.582;2024-03-02T10:16:35;18.10;99.90
61004;DHT22;46889;37.310;13.582;2024-03-02T10:19:21;18.40;99.90
61004;DHT22;46889;37.310;13.582;2024-03-02T10:21:50;18.10;99.90
61004;DHT22;46889;37.310;13.582;2024-03-02T10:24:17;18.20;99.90
61004;DHT22;46889;37.310;13.582;2024-03-02T10:26:42;18.40;99.90
61004;DHT22;46889;37.310;13.582;2024-03-02T10:29:09;18.60;99.90
61004;DHT22;46889;37.310;13.582;2024-03-02T10:31:39;18.80;99.90
61004;DHT22;46889;37.310;13.582;2024-03-02T10:34:06;18.60;99.90
61004;DHT22;46889;37.310;13.582;2024-03-02T10:36:32;18.70;99.90
61004;DHT22;46889;37.310;13.582;2024-03-02T10:39:01;18.60;99.90
61004;DHT22;46889;37.310;13.582;2024-03-02T10:41:27;18.70;99.90
61004;DHT22;46889;37.310;13.582;2024-03-02T10:43:54;18.50;99.90
61004;DHT22;46889;37.310;13.582;2024-03-02T10:46:31;18.70;99.90
61004;DHT22;46889;37.310;13.582;2024-03-02T10:49:01;18.90;99.90
61004;DHT22;46889;37.310;13.582;2024-03-02T10:51:28;18.90;99.90
61004;DHT22;46889;37.310;13.582;2024-03-02T10:54:00;18.80;99.90
61004;DHT22;46889;37.310;13.582;2024-03-02T10:58:55;18.80;99.90
61004;DHT22;46889;37.310;13.582;2024-03-02T11:01:22;18.80;99.90
61004;DHT22;46889;37.310;13.582;2024-03-02T11:03:48;18.80;99.90
61004;DHT22;46889;37.310;13.582;2024-03-02T11:06:14;18.50;99.90
61004;DHT22;46889;37.310;13.582;2024-03-02T11:08:40;18.30;99.90
61004;DHT22;46889;37.310;13.582;2024-03-02T11:11:10;18.60;99.90
61004;DHT22;46889;37.310;13.582;2024-03-02T11:13:39;18.30;99.90
61004;DHT22;46889;37.310;13.582;2024-03-02T11:16:12;18.20;99.90
61004;DHT22;46889;37.310;13.582;2024-03-02T11:18:41;17.80;99.90
61004;DHT22;46889;37.310;13.582;2024-03-02T11:21:07;17.80;99.90
61004;DHT22;46889;37.310;13.582;2024-03-02T11:23:34;18.20;99.90
61004;DHT22;46889;37.310;13.582;2024-03-02T11:26:21;18.40;99.90
61004;DHT22;46889;37.310;13.582;2024-03-02T11:28:48;18.40;99.90
61004;DHT22;46889;37.310;13.582;2024-03-02T11:31:14;18.60;99.90
61004;DHT22;46889;37.310;13.582;2024-03-02T11:33:40;18.90;99.90
61004;DHT22;46889;37.310;13.582;2024-03-02T11:36:06;19.30;99.90
61004;DHT22;46889;37.310;13.582;2024-03-02T11:38:34;19.60;99.90
61004;DHT22;46889;37.310;13.582;2024-03-02T11:41:00;19.70;99.90
61004;DHT22;46889;37.310;13.582;2024-03-02T11:43:30;19.90;99.90
61004;DHT22;46889;37.310;13.582;2024-03-02T11:45:56;20.00;99.90
61004;DHT22;46889;37.310;13.582;2024-03-02T11:48:22;20.10;99.90
61004;DHT22;46889;37.310;13.582;2024-03-02T11:50:50;20.20;99.90
61004;DHT22;46889;37.310;13.582;2024-03-02T11:53:16;20.40;99.90
61004;DHT22;46889;37.310;13.582;2024-03-02T11:55:42;20.20;99.90
61004;DHT22;46889;37.310;13.582;2024-03-02T11:58:15;20.20;99.90
61004;DHT22;46889;37.310;13.582;2024-03-02T12:00:46;20.20;99.90
61004;DHT22;46889;37.310;13.582;2024-03-02T12:03:13;20.10;99.90
61004;DHT22;46889;37.310;13.582;2024-03-02T12:05:39;20.20;99.90
61004;DHT22;46889;37.310;13.582;2024-03-02T12:08:05;20.20;99.90
61004;DHT22;46889;37.310;13.582;2024-03-02T12:10:32;20.20;99.90
61004;DHT22;46889;37.310;13.582;2024-03-02T12:13:02;20.00;99.90
61004;DHT22;46889;37.310;13.582;2024-03-02T12:15:29;20.00;99.90
61004;DHT22;46889;37.310;13.582;2024-03-02T12:17:56;20.00;99.90
61004;DHT22;46889;37.310;13.582;2024-03-02T12:20:22;19.80;99.90
61004;DHT22;46889;37.310;13.582;2024-03-02T12:22:51;19.80;99.90
61004;DHT22;46889;37.310;13.582;2024-03-02T12:25:20;19.70;99.90
61004;DHT22;46889;37.310;13.582;2024-03-02T12:27:47;19.60;99.90
61004;DHT22;46889;37.310;13.582;2024-03-02T12:30:15;19.30;99.90
61004;DHT22;46889;37.310;13.582;2024-03-02T12:32:41;19.40;99.90
61004;DHT22;46889;37.310;13.582;2024-03-02T12:35:07;19.50;99.90
61004;DHT22;46889;37.310;13.582;2024-03-02T12:37:37;19.60;99.90
61004;DHT22;46889;37.310;13.582;2024-03-02T12:40:09;19.50;99.90
61004;DHT22;46889;37.310;13.582;2024-03-02T12:42:35;19.50;99.90
61004;DHT22;46889;37.310;13.582;2024-03-02T12:45:01;19.50;99.90
61004;DHT22;46889;37.310;13.582;2024-03-02T12:47:28;19.50;99.90
61004;DHT22;46889;37.310;13.582;2024-03-02T12:49:55;19.50;99.90
61004;DHT22;46889;37.310;13.582;2024-03-02T12:52:21;19.50;99.90
61004;DHT22;46889;37.310;13.582;2024-03-02T12:54:48;19.50;99.90
61004;DHT22;46889;37.310;13.582;2024-03-02T12:57:17;19.60;99.90
61004;DHT22;46889;37.310;13.582;2024-03-02T12:59:46;19.70;99.90
61004;DHT22;46889;37.310;13.582;2024-03-02T13:02:18;19.70;99.90
61004;DHT22;46889;37.310;13.582;2024-03-02T13:04:44;19.60;99.90
61004;DHT22;46889;37.310;13.582;2024-03-02T13:07:17;19.50;99.90
61004;DHT22;46889;37.310;13.582;2024-03-02T13:09:45;19.50;99.90
61004;DHT22;46889;37.310;13.582;2024-03-02T13:12:11;19.40;99.90
61004;DHT22;46889;37.310;13.582;2024-03-02T13:14:37;19.30;99.90
61004;DHT22;46889;37.310;13.582;2024-03-02T13:17:03;19.30;99.90
61004;DHT22;46889;37.310;13.582;2024-03-02T13:19:32;19.30;99.90
61004;DHT22;46889;37.310;13.582;2024-03-02T13:21:57;19.10;99.90
61004;DHT22;46889;37.310;13.582;2024-03-02T13:24:24;19.10;99.90
61004;DHT22;46889;37.310;13.582;2024-03-02T13:26:54;18.90;99.90
61004;DHT22;46889;37.310;13.582;2024-03-02T13:29:22;18.70;99.90
61004;DHT22;46889;37.310;13.582;2024-03-02T13:31:48;18.80;99.90
61004;DHT22;46889;37.310;13.582;2024-03-02T13:34:14;18.70;99.90
61004;DHT22;46889;37.310;13.582;2024-03-02T13:36:40;18.80;99.90
61004;DHT22;46889;37.310;13.582;2024-03-02T13:39:06;18.90;99.90
61004;DHT22;46889;37.310;13.582;2024-03-02T13:41:35;19.00;99.90
61004;DHT22;46889;37.310;13.582;2024-03-02T13:44:01;19.00;99.90
61004;DHT22;46889;37.310;13.582;2024-03-02T13:46:27;19.10;99.90
61004;DHT22;46889;37.310;13.582;2024-03-02T13:48:54;19.10;99.90
61004;DHT22;46889;37.310;13.582;2024-03-02T13:51:19;19.10;99.90
61004;DHT22;46889;37.310;13.582;2024-03-02T13:53:45;18.90;99.90
61004;DHT22;46889;37.310;13.582;2024-03-02T13:56:11;18.90;99.90
61004;DHT22;46889;37.310;13.582;2024-03-02T13:58:37;18.90;99.90
61004;DHT22;46889;37.310;13.582;2024-03-02T14:01:03;18.90;99.90
61004;DHT22;46889;37.310;13.582;2024-03-02T14:03:30;18.90;99.90
61004;DHT22;46889;37.310;13.582;2024-03-02T14:05:56;19.00;99.90
61004;DHT22;46889;37.310;13.582;2024-03-02T14:08:22;18.90;99.90
61004;DHT22;46889;37.310;13.582;2024-03-02T14:10:49;19.10;99.90
61004;DHT22;46889;37.310;13.582;2024-03-02T14:13:15;19.20;99.90
61004;DHT22;46889;37.310;13.582;2024-03-02T14:15:41;19.30;99.90
61004;DHT22;46889;37.310;13.582;2024-03-02T14:18:07;19.10;99.90
61004;DHT22;46889;37.310;13.582;2024-03-02T14:20:35;18.90;99.90
61004;DHT22;46889;37.310;13.582;2024-03-02T14:23:01;18.90;99.90
61004;DHT22;46889;37.310;13.582;2024-03-02T14:25:28;19.00;99.90
61004;DHT22;46889;37.310;13.582;2024-03-02T14:27:57;19.00;99.90
61004;DHT22;46889;37.310;13.582;2024-03-02T14:30:23;19.00;99.90
61004;DHT22;46889;37.310;13.582;2024-03-02T14:32:49;19.10;99.90
61004;DHT22;46889;37.310;13.582;2024-03-02T14:35:15;19.10;99.90
61004;DHT22;46889;37.310;13.582;2024-03-02T14:37:41;19.00;99.90
61004;DHT22;46889;37.310;13.582;2024-03-02T14:40:06;18.80;99.90
61004;DHT22;46889;37.310;13.582;2024-03-02T14:42:35;18.70;99.90
61004;DHT22;46889;37.310;13.582;2024-03-02T14:45:01;18.60;99.90
61004;DHT22;46889;37.310;13.582;2024-03-02T14:47:34;18.50;99.90
61004;DHT22;46889;37.310;13.582;2024-03-02T14:50:00;18.50;99.90
61004;DHT22;46889;37.310;13.582;2024-03-02T14:52:34;18.60;99.90
61004;DHT22;46889;37.310;13.582;2024-03-02T14:55:01;18.60;99.90
61004;DHT22;46889;37.310;13.582;2024-03-02T14:57:29;18.70;99.90
61004;DHT22;46889;37.310;13.582;2024-03-02T14:59:55;18.70;99.90
61004;DHT22;46889;37.310;13.582;2024-03-02T15:02:21;18.60;99.90
61004;DHT22;46889;37.310;13.582;2024-03-02T15:04:47;18.50;99.90
61004;DHT22;46889;37.310;13.582;2024-03-02T15:07:13;18.50;99.90
61004;DHT22;46889;37.310;13.582;2024-03-02T15:09:42;18.50;99.90
61004;DHT22;46889;37.310;13.582;2024-03-02T15:12:08;18.60;99.90
61004;DHT22;46889;37.310;13.582;2024-03-02T15:14:38;18.60;99.90
61004;DHT22;46889;37.310;13.582;2024-03-02T15:17:04;18.60;99.90
61004;DHT22;46889;37.310;13.582;2024-03-02T15:19:29;18.60;99.90